createdAt,value
2022-12-03T00:01:14.194Z,100876.34
2022-12-03T00:03:40.996Z,100874.19
2022-12-03T00:06:07.849Z,100874.19
2022-12-03T00:08:34.968Z,100880.84
2022-12-03T00:11:01.459Z,100877.19
2022-12-03T00:13:28.022Z,100883.97
2022-12-03T00:15:54.566Z,100885.81
2022-12-03T00:18:21.116Z,100885.09
2022-12-03T00:20:47.703Z,100888.47
2022-12-03T00:23:14.198Z,100882.31
2022-12-03T00:25:40.667Z,100880.69
2022-12-03T00:28:07.669Z,100881.94
2022-12-03T00:30:34.200Z,100884.59
2022-12-03T00:33:00.728Z,100883.47
2022-12-03T00:35:27.258Z,100879.50
2022-12-03T00:37:54.690Z,100881.69
2022-12-03T00:40:21.211Z,100877.81
2022-12-03T00:42:47.719Z,100875.41
2022-12-03T00:45:14.286Z,100884.88
2022-12-03T00:47:40.776Z,100877.84
2022-12-03T00:50:08.298Z,100879.84
2022-12-03T00:52:34.826Z,100883.34
2022-12-03T00:55:01.380Z,100882.56
2022-12-03T00:57:27.898Z,100881.69
2022-12-03T00:59:54.379Z,100881.09
2022-12-03T01:02:21.033Z,100886.38
2022-12-03T01:04:47.761Z,100890.19
2022-12-03T01:07:14.489Z,100889.28
2022-12-03T01:09:40.961Z,100880.34
2022-12-03T01:12:07.491Z,100888.28
2022-12-03T01:14:34.052Z,100884.13
2022-12-03T01:17:00.570Z,100884.78
2022-12-03T01:19:27.194Z,100880.91
2022-12-03T01:21:54.852Z,100888.34
2022-12-03T01:24:21.811Z,100884.16
2022-12-03T01:26:48.437Z,100894.13
2022-12-03T01:29:15.048Z,100889.94
2022-12-03T01:32:00.201Z,100894.22
2022-12-03T01:34:26.696Z,100882.66
2022-12-03T01:36:53.220Z,100890.41
2022-12-03T01:39:20.520Z,100892.72
2022-12-03T01:41:48.841Z,100893.34
2022-12-03T01:44:19.300Z,100894.97
2022-12-03T01:46:46.662Z,100897.47
2022-12-03T01:49:41.755Z,100893.59
2022-12-03T01:52:17.292Z,100899.50
2022-12-03T01:54:59.144Z,100897.00
2022-12-03T01:57:45.130Z,100895.00
2022-12-03T02:00:16.909Z,100895.00
2022-12-03T02:02:43.574Z,100895.88
2022-12-03T02:05:22.438Z,100901.31
2022-12-03T02:07:49.302Z,100903.72
2022-12-03T02:10:18.843Z,100901.47
2022-12-03T02:12:52.105Z,100895.56
2022-12-03T02:15:18.703Z,100901.84
2022-12-03T02:17:45.443Z,100906.50
2022-12-03T02:20:12.956Z,100904.00
2022-12-03T02:22:59.716Z,100903.75
2022-12-03T05:58:41.424Z,101028.25
2022-12-03T06:01:08.384Z,101019.34
2022-12-03T06:03:35.049Z,101023.91
2022-12-03T06:06:02.272Z,101028.69
2022-12-03T06:08:28.738Z,101034.00
2022-12-03T06:10:55.204Z,101034.22
2022-12-03T06:13:21.696Z,101028.84
2022-12-03T06:15:48.328Z,101039.03
2022-12-03T06:18:15.018Z,101043.59
2022-12-03T06:20:41.485Z,101039.59
2022-12-03T06:23:08.148Z,101042.84
2022-12-03T06:25:34.718Z,101037.19
2022-12-03T06:28:01.193Z,101043.75
2022-12-03T06:30:27.760Z,101048.91
2022-12-03T06:32:54.307Z,101041.34
2022-12-03T06:35:20.829Z,101046.97
2022-12-03T06:37:47.440Z,101051.69
2022-12-03T06:40:14.230Z,101051.09
2022-12-03T06:42:40.713Z,101058.16
2022-12-03T06:45:07.379Z,101059.91
2022-12-03T06:47:33.926Z,101060.78
2022-12-03T06:50:00.561Z,101064.56
2022-12-03T06:52:27.152Z,101063.56
2022-12-03T06:54:53.973Z,101067.38
2022-12-03T06:57:20.784Z,101056.03
2022-12-03T06:59:47.314Z,101054.22
2022-12-03T07:02:13.891Z,101065.13
2022-12-03T07:04:44.848Z,101066.13
2022-12-03T07:07:12.953Z,101067.16
2022-12-03T07:09:39.460Z,101073.69
2022-12-03T07:12:06.121Z,101080.03
2022-12-03T07:14:32.663Z,101070.69
2022-12-03T07:16:59.259Z,101070.44
2022-12-03T07:19:32.079Z,101071.31
2022-12-03T07:21:59.240Z,101072.69
2022-12-03T07:24:25.730Z,101073.75
2022-12-03T07:26:52.208Z,101072.69
2022-12-03T07:29:18.819Z,101074.22
2022-12-03T07:31:45.415Z,101080.41
2022-12-03T07:34:12.008Z,101068.09
2022-12-03T07:36:38.604Z,101080.31
2022-12-03T07:39:05.378Z,101075.81
2022-12-03T07:41:32.021Z,101083.50
2022-12-03T07:43:58.652Z,101084.91
2022-12-03T07:46:25.218Z,101088.81
2022-12-03T07:48:51.755Z,101085.53
2022-12-03T07:51:18.283Z,101094.78
2022-12-03T07:53:44.783Z,101100.03
2022-12-03T07:56:11.279Z,101106.72
2022-12-03T07:58:37.964Z,101102.81
2022-12-03T08:01:04.538Z,101104.09
2022-12-03T08:03:31.147Z,101111.50
2022-12-03T08:05:57.667Z,101112.03
2022-12-03T08:08:24.200Z,101120.47
2022-12-03T08:10:50.739Z,101118.22
2022-12-03T08:13:18.790Z,101120.38
2022-12-03T08:15:46.413Z,101117.34
2022-12-03T08:18:16.493Z,101120.75
2022-12-03T08:20:45.207Z,101125.56
2022-12-03T08:23:22.507Z,101117.63
2022-12-03T08:25:50.917Z,101122.56
2022-12-03T08:28:23.015Z,101115.09
2022-12-03T08:31:05.626Z,101117.13
2022-12-03T08:33:35.352Z,101120.03
2022-12-03T08:36:29.598Z,101118.88
2022-12-03T08:39:05.275Z,101109.94
2022-12-03T08:41:50.792Z,101123.84
2022-12-03T08:44:27.827Z,101115.78
2022-12-03T08:47:05.361Z,101115.25
2022-12-03T08:49:32.273Z,101115.41
2022-12-03T08:52:01.773Z,101112.88
2022-12-03T08:54:28.452Z,101105.72
2022-12-03T08:56:55.261Z,101109.72
2022-12-03T08:59:45.385Z,101108.22
2022-12-03T09:02:28.784Z,101109.34
2022-12-03T09:04:55.748Z,101107.69
2022-12-03T09:07:22.553Z,101104.41
2022-12-03T09:09:49.260Z,101101.66
2022-12-03T09:12:15.791Z,101108.84
2022-12-03T09:14:42.271Z,101105.06
2022-12-03T09:17:08.842Z,101100.66
2022-12-03T09:19:35.465Z,101102.16
2022-12-03T09:22:01.966Z,101109.22
2022-12-03T09:24:28.440Z,101116.03
2022-12-03T09:26:55.038Z,101116.03
2022-12-03T09:29:21.539Z,101111.97
2022-12-03T09:31:48.182Z,101114.25
2022-12-03T09:34:14.800Z,101109.09
2022-12-03T09:36:41.354Z,101117.81
2022-12-03T09:39:07.932Z,101116.28
2022-12-03T09:41:34.572Z,101110.75
2022-12-03T09:44:04.446Z,101122.88
2022-12-03T09:46:32.585Z,101119.56
2022-12-03T09:49:00.580Z,101119.84
2022-12-03T09:51:34.411Z,101123.13
2022-12-03T09:54:04.677Z,101123.34
2022-12-03T09:56:31.797Z,101120.72
2022-12-03T09:58:58.610Z,101122.75
2022-12-03T10:01:29.962Z,101125.16
2022-12-03T10:03:56.972Z,101122.22
2022-12-03T10:06:24.139Z,101128.25
2022-12-03T10:08:54.452Z,101126.16
2022-12-03T10:11:24.240Z,101126.38
2022-12-03T10:13:51.481Z,101127.09
2022-12-03T10:16:21.043Z,101126.22
2022-12-03T10:18:52.146Z,101124.56
2022-12-03T10:21:36.479Z,101127.59
2022-12-03T10:24:19.878Z,101128.38
2022-12-03T10:26:47.822Z,101129.63
2022-12-03T10:29:18.110Z,101136.69
2022-12-03T10:31:45.369Z,101136.97
2022-12-03T10:34:12.189Z,101140.97
2022-12-03T10:36:38.807Z,101136.88
2022-12-03T10:39:09.731Z,101140.97
2022-12-03T10:41:38.056Z,101139.16
2022-12-03T11:00:44.148Z,101150.50
2022-12-03T11:03:40.102Z,101158.28
2022-12-03T11:06:07.044Z,101156.53
2022-12-03T11:08:36.572Z,101165.34
2022-12-03T11:11:26.048Z,101159.31
2022-12-03T11:14:01.280Z,101171.28
2022-12-03T11:16:39.936Z,101173.06
2022-12-03T11:19:12.751Z,101168.63
2022-12-03T15:07:45.869Z,101311.13
2022-12-03T15:10:19.450Z,101309.78
2022-12-03T15:12:54.079Z,101310.81
2022-12-03T15:15:21.824Z,101322.63
2022-12-03T15:24:20.884Z,101319.22
2022-12-03T15:26:47.639Z,101324.13
2022-12-03T15:29:20.664Z,101318.94
2022-12-03T15:31:47.415Z,101325.91
2022-12-03T15:34:46.226Z,101338.63
2022-12-03T15:42:41.374Z,101338.00
2022-12-03T15:45:12.053Z,101334.47
2022-12-03T15:47:41.755Z,101339.06
2022-12-03T15:50:08.869Z,101337.91
2022-12-03T15:58:04.509Z,101344.69
2022-12-03T16:00:33.624Z,101341.44
2022-12-03T16:03:00.214Z,101331.69
2022-12-03T16:05:27.987Z,101335.41
2022-12-03T16:07:54.950Z,101335.09
2022-12-03T16:10:21.561Z,101332.41
2022-12-03T16:12:50.530Z,101323.69
2022-12-03T16:15:20.995Z,101333.63
2022-12-03T16:17:50.181Z,101337.75
2022-12-03T16:20:28.960Z,101341.75
2022-12-03T16:23:28.039Z,101340.72
2022-12-03T16:25:58.992Z,101342.22
2022-12-03T16:28:36.292Z,101344.56
2022-12-03T16:31:02.888Z,101341.28
2022-12-03T16:33:32.159Z,101343.09
2022-12-03T16:36:35.966Z,101341.59
2022-12-03T16:42:28.588Z,101346.47
2022-12-03T16:45:46.415Z,101341.72
2022-12-03T16:48:27.199Z,101347.50
2022-12-03T16:50:54.770Z,101356.22
2022-12-03T16:53:33.432Z,101347.22
2022-12-03T16:56:00.316Z,101350.47
2022-12-03T16:58:27.023Z,101351.19
2022-12-03T17:00:54.230Z,101359.94
2022-12-03T17:03:22.652Z,101354.16
2022-12-03T17:05:49.561Z,101350.47
2022-12-03T17:08:16.660Z,101362.16
2022-12-03T17:10:44.168Z,101361.72
2022-12-03T17:13:11.117Z,101360.81
2022-12-03T17:15:38.661Z,101362.31
2022-12-03T17:18:05.705Z,101364.19
2022-12-03T17:20:33.379Z,101366.28
2022-12-03T17:23:00.326Z,101370.59
2022-12-03T17:25:27.700Z,101373.53
2022-12-03T17:27:54.364Z,101372.38
2022-12-03T17:30:20.892Z,101374.13
2022-12-03T17:32:48.801Z,101374.44
2022-12-03T17:35:15.361Z,101377.09
2022-12-03T17:37:41.983Z,101379.59
2022-12-03T17:40:10.519Z,101384.78
2022-12-03T17:42:37.166Z,101385.06
2022-12-03T17:45:04.076Z,101382.44
2022-12-03T17:47:30.755Z,101392.47
2022-12-03T17:49:57.802Z,101390.09
2022-12-03T17:52:24.372Z,101388.91
2022-12-03T17:57:37.403Z,101396.31
2022-12-03T18:00:04.559Z,101399.88
2022-12-03T18:02:31.039Z,101400.59
2022-12-03T18:04:57.570Z,101410.22
2022-12-03T18:07:24.093Z,101405.03
2022-12-03T18:09:50.579Z,101405.78
2022-12-03T18:12:17.250Z,101405.16
2022-12-03T18:14:43.760Z,101401.94
